Time;durP1;ratioP1;P1;durP2;ratioP2;P2;SDS_P1;SDS_P2;PMS_P1;PMS_P2;Temp;Humidity;BMP_temperature;BMP_pressure;BME280_temperature;BME280_humidity;BME280_pressure;Samples;Min_cycle;Max_cycle;Signal;HPM_P1;HPM_P2
2021/04/13 00:02:39;;;;;;;9.13;4.95;;;4.80;99.90;;;;;;4175922;28;20106;-68
2021/04/13 00:04:41;;;;;;;6.35;4.60;;;4.80;99.90;;;;;;4125514;28;20058;-68
2021/04/13 00:06:44;;;;;;;;;;;4.80;99.90;;;;;;4140780;28;20133;-68
2021/04/13 00:08:51;;;;;;;8.38;4.75;;;4.70;99.90;;;;;;4168944;28;19909;-68
2021/04/13 00:10:59;;;;;;;7.75;4.50;;;4.70;99.90;;;;;;4173707;28;20037;-68
2021/04/13 00:13:01;;;;;;;9.18;4.95;;;4.80;99.90;;;;;;4188960;28;20037;-68
2021/04/13 00:15:23;;;;;;;8.75;5.57;;;4.70;99.90;;;;;;4167722;28;20080;-68
2021/04/13 00:17:27;;;;;;;5.72;4.65;;;4.70;99.90;;;;;;4179540;28;20495;-68
2021/04/13 00:19:38;;;;;;;7.45;4.60;;;4.70;99.90;;;;;;4171669;28;20068;-68
2021/04/13 00:21:44;;;;;;;8.05;5.13;;;4.70;99.90;;;;;;4186177;28;20030;-68
2021/04/13 00:23:45;;;;;;;7.43;4.63;;;4.70;99.90;;;;;;4163938;28;20026;-68
2021/04/13 00:25:50;;;;;;;8.45;4.75;;;4.70;99.90;;;;;;4160654;28;20436;-68
2021/04/13 00:27:51;;;;;;;9.70;4.97;;;4.70;99.90;;;;;;4175063;28;20037;-68
2021/04/13 00:30:10;;;;;;;9.38;4.97;;;4.70;99.90;;;;;;4168296;28;20497;-68
2021/04/13 00:32:11;;;;;;;10.13;5.10;;;4.70;99.90;;;;;;4159125;28;20355;-68
2021/04/13 00:34:22;;;;;;;7.68;4.57;;;4.70;99.90;;;;;;4168222;28;20041;-68
2021/04/13 00:36:23;;;;;;;16.55;5.05;;;4.70;99.90;;;;;;4187529;28;20091;-68
2021/04/13 00:38:26;;;;;;;6.85;4.70;;;4.60;99.90;;;;;;4161197;28;20724;-68
2021/04/13 00:40:32;;;;;;;8.40;5.43;;;4.60;99.90;;;;;;4168416;28;20083;-68
2021/04/13 00:42:33;;;;;;;8.48;5.35;;;4.60;99.90;;;;;;4160364;28;20076;-68
2021/04/13 00:44:39;;;;;;;8.63;5.25;;;4.60;99.90;;;;;;4181275;28;20136;-68
2021/04/13 00:46:42;;;;;;;9.95;5.53;;;4.60;99.90;;;;;;4165343;28;20366;-68
2021/04/13 00:48:43;;;;;;;7.35;4.78;;;4.60;99.90;;;;;;4159770;28;20435;-68
2021/04/13 00:50:48;;;;;;;7.10;5.20;;;4.60;99.90;;;;;;4167964;28;20068;-68
2021/04/13 00:52:53;;;;;;;8.80;5.03;;;4.60;99.90;;;;;;4179183;28;20029;-68
2021/04/13 00:54:58;;;;;;;8.02;4.93;;;4.60;99.90;;;;;;4167277;28;20412;-68
2021/04/13 00:57:09;;;;;;;7.65;4.78;;;4.60;99.90;;;;;;4164685;28;20037;-68
2021/04/13 00:59:18;;;;;;;8.60;5.53;;;4.60;99.90;;;;;;4159679;28;20550;-68
2021/04/13 01:01:24;;;;;;;10.15;6.10;;;4.60;99.90;;;;;;4151954;28;20574;-68
2021/04/13 01:03:30;;;;;;;7.22;4.72;;;4.50;99.90;;;;;;4174804;28;20032;-68
2021/04/13 01:05:41;;;;;;;9.27;5.38;;;4.50;99.90;;;;;;4165924;28;20033;-68
2021/04/13 01:07:45;;;;;;;8.73;5.20;;;4.50;99.90;;;;;;4154270;28;20040;-68
2021/04/13 01:09:51;;;;;;;7.93;5.20;;;4.50;99.90;;;;;;4167050;28;20040;-68
2021/04/13 01:12:18;;;;;;;8.68;5.20;;;4.50;99.90;;;;;;4179006;28;20037;-68
2021/04/13 01:14:20;;;;;;;8.82;5.53;;;4.50;99.90;;;;;;4155570;28;20033;-68
2021/04/13 01:16:24;;;;;;;9.25;5.13;;;4.50;99.90;;;;;;4167249;28;20500;-68
2021/04/13 01:18:32;;;;;;;8.45;5.55;;;4.50;99.90;;;;;;4160528;28;20107;-68
2021/04/13 01:20:55;;;;;;;9.13;5.78;;;4.50;99.90;;;;;;4164019;28;20064;-68
2021/04/13 01:25:28;;;;;;;6.93;4.95;;;4.50;99.90;;;;;;4166732;28;20128;-68
2021/04/13 01:27:29;;;;;;;6.72;4.40;;;4.50;99.90;;;;;;4153709;28;20033;-68
2021/04/13 01:29:31;;;;;;;8.18;4.85;;;4.50;99.90;;;;;;4164498;28;20124;-68
2021/04/13 01:31:44;;;;;;;6.15;4.90;;;4.50;99.90;;;;;;4163543;28;20132;-68
2021/04/13 01:33:53;;;;;;;7.78;5.22;;;4.50;99.90;;;;;;4158869;28;20080;-68
2021/04/13 01:35:57;;;;;;;10.60;5.13;;;4.40;99.90;;;;;;4168661;28;20045;-68
2021/04/13 01:38:43;;;;;;;10.05;5.85;;;4.40;99.90;;;;;;4163242;28;20442;-68
2021/04/13 01:40:33;;;;;;;10.52;5.47;;;4.40;99.90;;;;;;4179889;28;20033;-68
2021/04/13 01:42:34;;;;;;;8.20;5.10;;;4.40;99.90;;;;;;4164204;28;20045;-68
2021/04/13 01:44:49;;;;;;;7.78;4.78;;;4.30;99.90;;;;;;4158901;28;20045;-68
2021/04/13 01:46:50;;;;;;;8.27;5.07;;;4.30;99.90;;;;;;4162682;28;20065;-68
2021/04/13 01:48:52;;;;;;;10.05;5.53;;;4.30;99.90;;;;;;4166565;28;20540;-68
2021/04/13 01:50:57;;;;;;;7.57;4.63;;;4.30;99.90;;;;;;4200694;28;20028;-68
2021/04/13 01:53:09;;;;;;;7.38;4.85;;;4.30;99.90;;;;;;4162240;28;20060;-68
2021/04/13 01:55:32;;;;;;;8.10;5.25;;;4.20;99.90;;;;;;4158272;28;20059;-68
2021/04/13 01:58:02;;;;;;;9.95;5.28;;;4.20;99.90;;;;;;4167752;28;20076;-68
2021/04/13 02:00:12;;;;;;;11.18;5.45;;;4.20;99.90;;;;;;4128450;28;20135;-68
2021/04/13 02:02:18;;;;;;;8.45;4.88;;;4.20;99.90;;;;;;4163140;28;20044;-68
2021/04/13 02:04:30;;;;;;;8.98;5.00;;;4.10;99.90;;;;;;4157259;28;20083;-68
2021/04/13 02:06:36;;;;;;;8.07;4.63;;;4.10;99.90;;;;;;4168614;28;20060;-68
2021/04/13 02:08:50;;;;;;;9.20;5.18;;;4.10;99.90;;;;;;4167067;28;20610;-68
2021/04/13 02:11:15;;;;;;;7.40;4.95;;;4.10;99.90;;;;;;4161369;28;20037;-68
2021/04/13 02:13:36;;;;;;;6.88;4.53;;;4.10;99.90;;;;;;4167808;28;20480;-68
2021/04/13 02:15:48;;;;;;;6.43;4.55;;;4.10;99.90;;;;;;4166824;28;20033;-68
2021/04/13 02:17:55;;;;;;;10.10;4.65;;;4.10;99.90;;;;;;4160441;28;20036;-68
2021/04/13 02:19:57;;;;;;;9.18;5.07;;;4.10;99.90;;;;;;4156779;28;20042;-68
2021/04/13 02:22:25;;;;;;;10.20;5.85;;;4.00;99.90;;;;;;4166952;28;20032;-68
2021/04/13 02:24:35;;;;;;;8.50;5.15;;;4.10;99.90;;;;;;4157396;28;20450;-68
2021/04/13 02:26:43;;;;;;;7.80;4.75;;;4.00;99.90;;;;;;4164023;28;20121;-68
2021/04/13 02:28:45;;;;;;;7.80;4.78;;;4.00;99.90;;;;;;4180380;28;20041;-68
2021/04/13 02:30:47;;;;;;;9.15;5.38;;;4.00;99.90;;;;;;4166658;28;20042;-68
2021/04/13 02:32:51;;;;;;;9.40;5.43;;;4.00;99.90;;;;;;4196049;28;20556;-68
2021/04/13 02:35:13;;;;;;;7.47;4.80;;;4.00;99.90;;;;;;4163254;28;20029;-68
2021/04/13 02:37:38;;;;;;;7.93;4.97;;;4.00;99.90;;;;;;4166369;28;20092;-68
2021/04/13 02:39:40;;;;;;;7.90;4.93;;;4.00;99.90;;;;;;4158439;28;20049;-68
2021/04/13 02:41:51;;;;;;;7.68;5.03;;;4.00;99.90;;;;;;4182589;28;20056;-68
2021/04/13 02:43:54;;;;;;;8.60;5.43;;;3.90;99.90;;;;;;4162495;28;20057;-68
2021/04/13 02:46:00;;;;;;;7.55;5.13;;;3.90;99.90;;;;;;4161529;28;20046;-68
2021/04/13 02:48:15;;;;;;;9.23;4.80;;;4.00;99.90;;;;;;4174028;28;20044;-68
2021/04/13 02:50:18;;;;;;;10.32;5.63;;;3.90;99.90;;;;;;4163602;28;20046;-68
2021/04/13 02:52:25;;;;;;;7.63;5.13;;;3.90;99.90;;;;;;4164027;28;20045;-68
2021/04/13 02:54:43;;;;;;;7.60;4.75;;;3.90;99.90;;;;;;4158847;28;20697;-68
2021/04/13 02:56:47;;;;;;;9.88;5.72;;;3.90;99.90;;;;;;4165655;28;20385;-68
2021/04/13 02:58:57;;;;;;;10.77;5.40;;;3.90;99.90;;;;;;4169761;28;20037;-69
2021/04/13 03:00:59;;;;;;;12.18;5.78;;;3.90;99.90;;;;;;4164391;28;20046;-68
2021/04/13 03:03:35;;;;;;;8.35;5.30;;;3.90;99.90;;;;;;4167108;28;20544;-68
2021/04/13 03:05:38;;;;;;;6.63;4.45;;;3.90;99.90;;;;;;4161145;28;20040;-68
2021/04/13 03:07:39;;;;;;;8.68;5.45;;;3.90;99.90;;;;;;4166440;28;20124;-68
2021/04/13 03:09:41;;;;;;;7.57;4.63;;;3.80;99.90;;;;;;4163449;28;20485;-68
2021/04/13 03:11:48;;;;;;;7.72;4.72;;;3.90;99.90;;;;;;4161944;28;20121;-68
2021/04/13 03:13:50;;;;;;;8.90;5.20;;;3.80;99.90;;;;;;4163466;28;20063;-68
2021/04/13 03:15:56;;;;;;;8.85;5.10;;;3.80;99.90;;;;;;4161414;28;20030;-68
2021/04/13 03:18:05;;;;;;;8.80;5.75;;;3.80;99.90;;;;;;4172228;28;20139;-68
2021/04/13 03:20:11;;;;;;;7.68;4.93;;;3.80;99.90;;;;;;4170558;28;20060;-68
2021/04/13 03:22:15;;;;;;;8.50;4.90;;;3.80;99.90;;;;;;4168879;28;20509;-68
2021/04/13 03:24:38;;;;;;;7.72;5.18;;;3.80;99.90;;;;;;4182761;28;20082;-68
2021/04/13 03:26:52;;;;;;;8.02;5.05;;;3.80;99.90;;;;;;4162188;28;20365;-68
2021/04/13 03:28:56;;;;;;;7.90;4.72;;;3.80;99.90;;;;;;4165824;28;20029;-68
2021/04/13 03:30:59;;;;;;;11.60;5.70;;;3.80;99.90;;;;;;4160665;28;20030;-68
2021/04/13 03:33:21;;;;;;;7.72;4.97;;;3.80;99.90;;;;;;4172943;28;20060;-68
2021/04/13 03:35:24;;;;;;;9.27;5.00;;;3.70;99.90;;;;;;4179892;28;20044;-68
2021/04/13 03:37:26;;;;;;;11.30;4.65;;;3.70;99.90;;;;;;4159738;28;20036;-68
2021/04/13 03:39:33;;;;;;;9.20;5.03;;;3.70;99.90;;;;;;4167982;28;20502;-68
2021/04/13 03:41:39;;;;;;;9.60;5.18;;;3.70;99.90;;;;;;4160026;28;20045;-68
2021/04/13 03:43:41;;;;;;;8.52;4.78;;;3.70;99.90;;;;;;4177983;28;20058;-68
2021/04/13 03:45:44;;;;;;;6.30;4.07;;;3.70;99.90;;;;;;4160941;28;20030;-68
2021/04/13 03:47:46;;;;;;;6.90;4.57;;;3.80;99.90;;;;;;4167976;28;20091;-68
2021/04/13 03:49:48;;;;;;;8.52;5.05;;;3.70;99.90;;;;;;4166403;28;20041;-68
2021/04/13 03:51:55;;;;;;;7.90;4.85;;;3.70;99.90;;;;;;4167129;28;20040;-68
2021/04/13 03:53:55;;;;;;;9.68;4.82;;;3.70;99.90;;;;;;4157595;28;20578;-68
2021/04/13 03:56:08;;;;;;;7.85;5.20;;;3.70;99.90;;;;;;4160062;28;20101;-68
2021/04/13 03:58:16;;;;;;;;;;;3.70;99.90;;;;;;4164241;28;20619;-68
2021/04/13 04:00:21;;;;;;;6.70;4.70;;;3.70;99.90;;;;;;4167975;28;19913;-68
2021/04/13 04:02:21;;;;;;;8.27;4.97;;;3.70;99.90;;;;;;4181158;28;20086;-68
2021/04/13 04:04:33;;;;;;;7.55;4.80;;;3.70;99.90;;;;;;4163505;28;20578;-68
2021/04/13 04:06:37;;;;;;;8.02;4.47;;;3.70;99.90;;;;;;4144316;28;20026;-68
2021/04/13 04:08:48;;;;;;;9.80;5.30;;;3.70;99.90;;;;;;4168420;28;20041;-68
2021/04/13 04:10:51;;;;;;;6.72;4.72;;;3.70;99.90;;;;;;4160815;28;20115;-68
2021/04/13 04:13:17;;;;;;;7.57;4.28;;;3.70;99.90;;;;;;4160856;28;20025;-68
2021/04/13 04:15:26;;;;;;;9.60;4.57;;;3.70;99.90;;;;;;4162942;28;20026;-68
2021/04/13 04:17:31;;;;;;;6.22;4.35;;;3.70;99.90;;;;;;4176261;28;20517;-68
2021/04/13 04:19:32;;;;;;;8.13;4.82;;;3.70;99.90;;;;;;4168816;28;20087;-68
2021/04/13 04:21:39;;;;;;;7.45;4.63;;;3.70;99.90;;;;;;4167496;28;20116;-68
2021/04/13 04:23:41;;;;;;;9.90;4.78;;;3.70;99.90;;;;;;4168801;28;20029;-68
2021/04/13 04:25:46;;;;;;;6.45;4.07;;;3.70;99.90;;;;;;4160878;28;20033;-68
2021/04/13 04:27:52;;;;;;;6.43;4.35;;;3.70;99.90;;;;;;4163745;28;20029;-68
2021/04/13 04:30:32;;;;;;;8.27;4.75;;;3.70;99.90;;;;;;4164340;28;20044;-68
2021/04/13 04:32:32;;;;;;;8.60;4.70;;;3.60;99.90;;;;;;4145812;28;20155;-68
2021/04/13 04:34:41;;;;;;;7.43;4.63;;;3.60;99.90;;;;;;4167432;28;20034;-68
2021/04/13 04:36:42;;;;;;;7.22;4.07;;;3.60;99.90;;;;;;4161914;28;20037;-69
2021/04/13 04:38:42;;;;;;;9.35;5.18;;;3.60;99.90;;;;;;4168844;28;20488;-68
2021/04/13 04:40:49;;;;;;;7.38;4.45;;;3.60;99.90;;;;;;4177767;28;20385;-68
2021/04/13 04:42:53;;;;;;;8.50;5.35;;;3.60;99.90;;;;;;4167526;28;20148;-68
2021/04/13 04:45:31;;;;;;;9.93;4.78;;;3.60;99.90;;;;;;4169082;28;20057;-68
2021/04/13 04:47:35;;;;;;;9.15;5.03;;;3.60;99.90;;;;;;4167997;28;20546;-68
2021/04/13 04:49:35;;;;;;;12.25;4.93;;;3.60;99.90;;;;;;4165222;28;20069;-68
2021/04/13 04:51:37;;;;;;;8.68;5.18;;;3.70;99.90;;;;;;4168481;28;20587;-68
2021/04/13 04:53:40;;;;;;;5.95;4.18;;;3.60;99.90;;;;;;4165282;28;20041;-68
2021/04/13 04:55:41;;;;;;;7.07;5.05;;;3.60;99.90;;;;;;4148069;28;20097;-68
2021/04/13 04:57:42;;;;;;;6.32;4.50;;;3.60;99.90;;;;;;4174253;28;20040;-68
2021/04/13 04:59:44;;;;;;;7.72;4.65;;;3.60;99.90;;;;;;4164819;28;20048;-68
2021/04/13 05:01:45;;;;;;;7.60;5.07;;;3.70;99.90;;;;;;4163978;28;20095;-68
2021/04/13 05:03:46;;;;;;;9.18;4.65;;;3.70;99.90;;;;;;4163389;28;20029;-68
2021/04/13 05:05:48;;;;;;;6.80;4.38;;;3.70;99.90;;;;;;4163977;28;20103;-68
2021/04/13 05:07:48;;;;;;;8.55;4.57;;;3.70;99.90;;;;;;4159372;28;20040;-68
2021/04/13 05:09:49;;;;;;;8.07;4.85;;;3.70;99.90;;;;;;4167697;28;20037;-68
2021/04/13 05:11:49;;;;;;;9.55;4.78;;;3.70;99.90;;;;;;4160089;28;20511;-68
2021/04/13 05:13:51;;;;;;;8.57;4.63;;;3.80;99.90;;;;;;4167490;28;20517;-68
2021/04/13 05:15:52;;;;;;;10.10;5.15;;;3.80;99.90;;;;;;4172032;28;20033;-68
2021/04/13 05:17:52;;;;;;;9.50;5.15;;;3.80;99.90;;;;;;4162140;28;20075;-68
2021/04/13 05:19:53;;;;;;;10.13;5.38;;;3.90;99.90;;;;;;4166425;28;20065;-68
2021/04/13 05:21:53;;;;;;;8.18;5.07;;;3.90;99.90;;;;;;4166426;28;20115;-68
2021/04/13 05:23:54;;;;;;;10.27;5.07;;;3.90;99.90;;;;;;4150018;28;20036;-68
2021/04/13 05:25:55;;;;;;;9.05;5.35;;;3.90;99.90;;;;;;4159931;28;20057;-68
2021/04/13 05:27:55;;;;;;;9.95;5.18;;;3.90;99.90;;;;;;4152196;28;20041;-68
2021/04/13 05:29:56;;;;;;;8.98;5.10;;;3.90;99.90;;;;;;4169116;28;20132;-68
2021/04/13 05:31:57;;;;;;;12.48;5.32;;;4.00;99.90;;;;;;4156920;28;20037;-68
2021/04/13 05:33:58;;;;;;;8.73;5.03;;;4.00;99.90;;;;;;4156387;28;20119;-68
2021/04/13 05:36:04;;;;;;;13.15;5.15;;;4.00;99.90;;;;;;4161139;28;20032;-68
2021/04/13 05:38:09;;;;;;;11.40;5.43;;;4.00;99.90;;;;;;4160193;28;20034;-68
2021/04/13 05:40:16;;;;;;;9.05;4.97;;;4.10;99.90;;;;;;4162377;28;20053;-68
2021/04/13 05:42:24;;;;;;;8.32;5.20;;;4.10;99.90;;;;;;4166726;28;20060;-68
2021/04/13 05:44:25;;;;;;;9.82;4.88;;;4.10;99.90;;;;;;4165702;28;20037;-68
2021/04/13 05:46:26;;;;;;;11.05;5.65;;;4.10;99.90;;;;;;4165776;28;20034;-68
2021/04/13 05:48:28;;;;;;;23.55;6.10;;;4.10;99.90;;;;;;4169887;28;20025;-68
2021/04/13 05:50:35;;;;;;;10.37;5.60;;;4.10;99.90;;;;;;4168183;28;20123;-68
2021/04/13 05:52:36;;;;;;;8.13;5.30;;;4.20;99.90;;;;;;4158452;28;20040;-68
2021/04/13 05:54:36;;;;;;;10.82;5.38;;;4.20;99.90;;;;;;4159195;28;20470;-68
2021/04/13 05:56:40;;;;;;;13.50;5.97;;;4.10;99.90;;;;;;4157530;28;20440;-68
2021/04/13 05:58:49;;;;;;;13.68;5.97;;;4.20;99.90;;;;;;4155054;28;20508;-68
2021/04/13 06:01:10;;;;;;;12.88;6.43;;;4.20;99.90;;;;;;4156652;28;20087;-68
2021/04/13 06:03:30;;;;;;;10.43;5.68;;;4.20;99.90;;;;;;4154734;28;20044;-68
2021/04/13 06:05:32;;;;;;;9.37;5.77;;;4.20;99.90;;;;;;4160477;28;20030;-68
2021/04/13 06:07:33;;;;;;;13.85;6.38;;;4.20;99.90;;;;;;4157848;28;20022;-68
2021/04/13 06:09:33;;;;;;;11.13;5.70;;;4.20;99.90;;;;;;4158337;28;20440;-69
2021/04/13 06:11:34;;;;;;;10.27;6.28;;;4.20;99.90;;;;;;4153697;28;20205;-69
2021/04/13 06:13:35;;;;;;;10.90;5.88;;;4.20;99.90;;;;;;4154769;28;20037;-69
2021/04/13 06:15:36;;;;;;;10.82;5.95;;;4.20;99.90;;;;;;4162947;28;20075;-69
2021/04/13 06:17:36;;;;;;;8.85;5.38;;;4.30;99.90;;;;;;4180292;28;20033;-69
2021/04/13 06:19:37;;;;;;;7.90;5.22;;;4.30;99.90;;;;;;4156849;28;20037;-69
2021/04/13 06:21:37;;;;;;;9.88;5.40;;;4.30;99.90;;;;;;4161609;28;20041;-69
2021/04/13 06:23:38;;;;;;;12.23;5.25;;;4.40;99.90;;;;;;4160118;28;20626;-69
2021/04/13 06:25:39;;;;;;;8.80;5.55;;;4.40;99.90;;;;;;4153544;28;20425;-69
2021/04/13 06:27:40;;;;;;;11.18;5.47;;;4.40;99.90;;;;;;4195177;28;20094;-69
2021/04/13 06:29:40;;;;;;;11.07;5.75;;;4.50;99.90;;;;;;4164961;28;20033;-69
2021/04/13 06:31:41;;;;;;;11.07;6.13;;;4.50;99.90;;;;;;4165933;28;20148;-69
2021/04/13 06:33:42;;;;;;;11.18;5.97;;;4.50;99.90;;;;;;4152457;28;20076;-69
2021/04/13 06:35:45;;;;;;;10.68;5.50;;;4.60;99.90;;;;;;4160538;28;20099;-69
2021/04/13 06:37:47;;;;;;;10.55;5.70;;;4.60;99.90;;;;;;4155829;28;20044;-68
2021/04/13 06:39:48;;;;;;;14.23;5.88;;;4.70;99.90;;;;;;4157507;28;20064;-69
2021/04/13 06:42:25;;;;;;;17.45;5.50;;;4.70;99.90;;;;;;4160701;28;20029;-69
2021/04/13 06:44:41;;;;;;;11.02;5.43;;;4.70;99.90;;;;;;4181288;28;20063;-69
2021/04/13 06:46:53;;;;;;;12.65;5.72;;;4.70;99.90;;;;;;4171582;28;20522;-69
2021/04/13 06:49:05;;;;;;;11.57;6.22;;;4.80;99.90;;;;;;4162809;28;20031;-69
2021/04/13 06:51:20;;;;;;;11.35;5.28;;;4.80;99.90;;;;;;4156252;28;20029;-69
2021/04/13 06:53:26;;;;;;;9.13;5.28;;;4.90;99.90;;;;;;4155221;28;20038;-69
2021/04/13 06:55:45;;;;;;;12.50;5.57;;;5.00;99.90;;;;;;4157700;28;20026;-69
2021/04/13 06:58:11;;;;;;;13.55;6.10;;;5.00;99.90;;;;;;4159102;28;20056;-69
2021/04/13 07:00:22;;;;;;;9.88;4.78;;;5.10;99.90;;;;;;4162907;28;20112;-69
2021/04/13 07:02:50;;;;;;;9.80;4.80;;;5.10;99.90;;;;;;4186307;28;20477;-69
2021/04/13 07:05:21;;;;;;;9.20;5.20;;;5.20;99.90;;;;;;4158731;28;20033;-69
2021/04/13 07:07:35;;;;;;;10.48;4.88;;;5.30;99.90;;;;;;4156712;28;20048;-69
2021/04/13 07:09:40;;;;;;;11.70;5.45;;;5.30;99.90;;;;;;4171221;28;20103;-69
2021/04/13 07:11:51;;;;;;;11.40;5.47;;;5.30;99.90;;;;;;4159829;28;20053;-69
2021/04/13 07:14:19;;;;;;;8.23;4.50;;;5.40;99.90;;;;;;4161210;28;20128;-69
2021/04/13 07:16:31;;;;;;;12.93;4.10;;;5.40;99.90;;;;;;4177310;28;20041;-69
2021/04/13 07:18:54;;;;;;;9.80;5.00;;;5.50;99.90;;;;;;4159029;28;20049;-69
2021/04/13 07:21:27;;;;;;;11.57;4.70;;;5.50;99.90;;;;;;4154458;28;20080;-69
2021/04/13 07:23:34;;;;;;;11.20;4.57;;;5.50;99.90;;;;;;4145341;28;20033;-69
2021/04/13 07:25:43;;;;;;;10.07;4.13;;;5.70;99.90;;;;;;4169387;28;20136;-69
2021/04/13 07:27:45;;;;;;;11.85;5.10;;;5.70;99.90;;;;;;4156996;28;20080;-69
2021/04/13 07:29:57;;;;;;;13.65;4.80;;;5.70;99.90;;;;;;4159354;28;20045;-69
2021/04/13 07:32:04;;;;;;;7.80;4.43;;;5.80;99.90;;;;;;4162845;28;20041;-69
2021/04/13 07:34:05;;;;;;;10.48;4.35;;;5.90;99.90;;;;;;4162085;28;20048;-69
2021/04/13 07:36:23;;;;;;;9.00;4.75;;;6.00;99.90;;;;;;4161569;28;20388;-69
2021/04/13 07:38:29;;;;;;;12.60;4.50;;;6.00;99.90;;;;;;4168339;28;20033;-69
2021/04/13 07:40:33;;;;;;;14.82;5.10;;;6.10;99.90;;;;;;4174639;28;20527;-69
2021/04/13 07:42:38;;;;;;;8.65;4.38;;;6.20;99.90;;;;;;4170101;28;20041;-69
2021/04/13 07:45:18;;;;;;;10.32;4.75;;;6.20;99.90;;;;;;4165136;28;20033;-69
2021/04/13 07:47:53;;;;;;;12.55;4.32;;;6.30;99.90;;;;;;4160597;28;20045;-70
2021/04/13 07:49:57;;;;;;;13.23;4.90;;;6.40;99.90;;;;;;4160997;28;20517;-69
2021/04/13 07:52:02;;;;;;;11.90;5.07;;;6.50;99.90;;;;;;4156097;28;20037;-69
2021/04/13 07:54:02;;;;;;;11.32;4.70;;;6.60;99.90;;;;;;4157282;28;20041;-69
2021/04/13 07:56:40;;;;;;;9.88;3.88;;;6.70;99.90;;;;;;4162130;28;20047;-69
2021/04/13 07:58:58;;;;;;;10.00;3.72;;;6.80;99.90;;;;;;4161492;28;20029;-69
2021/04/13 08:00:59;;;;;;;11.73;4.43;;;6.90;99.90;;;;;;4158743;28;20034;-69
2021/04/13 08:03:31;;;;;;;8.23;3.63;;;7.00;99.90;;;;;;4185935;28;20033;-68
2021/04/13 08:05:44;;;;;;;9.45;4.25;;;7.00;99.90;;;;;;4159270;28;20037;-68
2021/04/13 08:08:01;;;;;;;;;;;7.10;99.90;;;;;;4176745;28;21000;-68
2021/04/13 08:10:33;;;;;;;13.98;4.35;;;7.20;99.90;;;;;;4182505;28;20372;-68
2021/04/13 08:12:48;;;;;;;15.48;3.88;;;7.30;99.90;;;;;;4170831;28;20131;-68
2021/04/13 08:15:05;;;;;;;16.15;4.28;;;7.40;99.90;;;;;;4160664;28;20366;-66
2021/04/13 08:17:17;;;;;;;11.07;3.45;;;7.40;99.90;;;;;;4160098;28;20037;-66
2021/04/13 08:19:27;;;;;;;8.77;3.80;;;7.50;99.90;;;;;;4159244;28;20049;-66
2021/04/13 08:21:33;;;;;;;9.85;3.47;;;7.60;99.90;;;;;;4160852;28;20048;-66
2021/04/13 08:23:36;;;;;;;10.45;2.97;;;7.70;99.90;;;;;;4160148;28;20029;-66
2021/04/13 08:26:11;;;;;;;6.72;2.80;;;7.80;99.90;;;;;;4089036;28;20411;-66
2021/04/13 08:28:35;;;;;;;8.48;3.15;;;7.90;99.90;;;;;;4180062;28;20471;-66
2021/04/13 08:34:14;;;;;;;12.90;2.58;;;8.10;99.90;;;;;;4157709;28;20037;-66
2021/04/13 08:36:53;;;;;;;14.73;3.55;;;8.20;99.90;;;;;;4153177;28;21068;-66
2021/04/13 08:39:24;;;;;;;13.43;2.95;;;8.30;99.90;;;;;;4148792;28;20451;-66
2021/04/13 08:41:38;;;;;;;6.40;2.17;;;8.40;99.90;;;;;;4161662;28;20064;-66
2021/04/13 08:43:41;;;;;;;11.57;2.75;;;8.50;99.90;;;;;;4181176;28;20025;-66
2021/04/13 08:46:08;;;;;;;7.47;2.63;;;8.60;99.90;;;;;;4088147;28;20124;-66
2021/04/13 08:48:50;;;;;;;9.55;2.92;;;8.70;99.90;;;;;;4137194;28;20110;-69
2021/04/13 08:51:09;;;;;;;;;;;8.90;99.90;;;;;;4177850;28;20035;-66
2021/04/13 08:53:25;;;;;;;10.20;2.53;;;8.90;99.90;;;;;;4159423;28;19919;-66
2021/04/13 08:55:35;;;;;;;17.77;3.03;;;9.00;99.90;;;;;;4161240;28;20556;-66
2021/04/13 08:57:40;;;;;;;8.23;2.35;;;9.10;99.90;;;;;;4176689;28;20608;-66
2021/04/13 08:59:44;;;;;;;9.52;2.42;;;9.10;99.90;;;;;;4161139;28;20113;-66
2021/04/13 09:01:46;;;;;;;10.20;2.40;;;9.20;99.90;;;;;;4192472;28;20041;-66
2021/04/13 09:03:47;;;;;;;5.23;1.93;;;9.10;99.90;;;;;;4159517;28;20033;-66
2021/04/13 09:06:07;;;;;;;11.75;2.65;;;9.10;99.90;;;;;;4162877;28;20794;-66
2021/04/13 09:08:30;;;;;;;9.73;2.40;;;9.00;99.90;;;;;;4162293;28;20151;-66
2021/04/13 09:10:43;;;;;;;7.43;2.00;;;9.00;99.90;;;;;;4160660;28;20355;-66
2021/04/13 09:13:01;;;;;;;8.00;2.03;;;9.00;99.90;;;;;;4156285;28;20505;-68
2021/04/13 09:15:23;;;;;;;9.95;2.20;;;9.10;99.90;;;;;;4162575;28;20354;-68
2021/04/13 09:17:31;;;;;;;5.63;2.00;;;9.20;99.90;;;;;;4164459;28;20087;-68
2021/04/13 09:19:35;;;;;;;5.22;2.00;;;9.30;99.90;;;;;;4160876;28;20037;-68
2021/04/13 09:21:50;;;;;;;7.78;1.90;;;9.30;99.90;;;;;;4167581;28;20064;-66
2021/04/13 09:24:19;;;;;;;7.32;1.60;;;9.30;99.90;;;;;;4172843;28;20036;-66
2021/04/13 09:26:50;;;;;;;5.60;1.50;;;9.20;99.90;;;;;;4161066;28;20090;-66
2021/04/13 09:28:57;;;;;;;3.90;1.38;;;9.20;99.90;;;;;;4162618;28;20132;-66
2021/04/13 09:31:01;;;;;;;8.32;2.00;;;9.30;99.90;;;;;;4161372;28;20374;-68
2021/04/13 09:33:08;;;;;;;9.77;1.95;;;9.50;99.90;;;;;;4161046;28;20060;-68
2021/04/13 09:35:30;;;;;;;6.68;1.55;;;9.50;99.90;;;;;;4169778;28;20545;-68
2021/04/13 09:37:52;;;;;;;7.30;1.80;;;9.60;99.90;;;;;;4161240;28;20382;-68
2021/04/13 09:40:21;;;;;;;9.05;2.00;;;9.70;99.90;;;;;;4160124;28;20128;-68
2021/04/13 09:42:55;;;;;;;12.13;2.03;;;9.80;99.90;;;;;;4160724;28;20041;-68
2021/04/13 09:45:31;;;;;;;4.00;1.33;;;9.90;99.90;;;;;;4157346;28;20096;-68
2021/04/13 09:48:10;;;;;;;3.83;1.27;;;9.90;99.90;;;;;;4125773;28;20133;-68
2021/04/13 09:50:51;;;;;;;5.35;1.08;;;9.90;99.90;;;;;;4161165;28;20041;-67
2021/04/13 09:53:19;;;;;;;2.42;1.20;;;9.90;99.90;;;;;;4156458;28;20038;-67
2021/04/13 09:55:50;;;;;;;5.07;1.00;;;9.90;99.90;;;;;;4163702;28;20026;-67
2021/04/13 09:58:34;;;;;;;4.97;1.52;;;10.00;99.90;;;;;;4158103;28;20036;-67
2021/04/13 10:00:57;;;;;;;8.65;1.90;;;10.00;99.90;;;;;;4149568;28;20588;-67
2021/04/13 10:03:33;;;;;;;3.55;1.40;;;9.90;99.90;;;;;;4156923;28;20386;-67
2021/04/13 10:05:37;;;;;;;6.82;1.27;;;10.00;99.90;;;;;;4160152;28;20371;-67
2021/04/13 10:07:59;;;;;;;7.72;1.77;;;10.00;99.90;;;;;;4161838;28;20033;-67
2021/04/13 10:10:03;;;;;;;4.63;1.23;;;10.00;99.90;;;;;;4157318;28;20068;-67
2021/04/13 10:12:29;;;;;;;3.13;1.30;;;10.10;99.90;;;;;;4178360;28;20040;-67
2021/04/13 10:14:44;;;;;;;3.45;1.35;;;10.20;99.90;;;;;;4194735;28;20552;-67
2021/04/13 10:17:06;;;;;;;7.20;1.85;;;10.30;99.90;;;;;;4162717;28;20037;-67
2021/04/13 10:19:37;;;;;;;3.67;0.98;;;10.40;99.90;;;;;;4161366;28;20045;-67
2021/04/13 10:21:56;;;;;;;2.95;1.08;;;10.50;99.90;;;;;;4182374;28;20391;-67
2021/04/13 10:24:02;;;;;;;5.68;1.48;;;10.60;99.90;;;;;;4176415;28;20033;-67
2021/04/13 10:26:36;;;;;;;4.70;1.15;;;10.70;99.90;;;;;;4160173;28;20650;-67
2021/04/13 10:28:59;;;;;;;5.88;1.63;;;10.80;99.90;;;;;;4160128;28;20038;-67
2021/04/13 10:31:41;;;;;;;2.00;1.25;;;10.70;99.90;;;;;;4161317;28;20045;-67
2021/04/13 10:34:26;;;;;;;5.93;1.45;;;10.60;99.90;;;;;;4158394;28;20095;-67
2021/04/13 10:36:32;;;;;;;4.95;1.50;;;10.60;99.90;;;;;;4108329;28;20023;-67
2021/04/13 10:39:06;;;;;;;5.75;1.35;;;10.50;99.90;;;;;;4138487;28;20037;-67
2021/04/13 10:41:27;;;;;;;3.05;1.38;;;10.30;99.90;;;;;;4172802;28;20040;-67
2021/04/13 10:43:52;;;;;;;4.03;1.35;;;10.20;99.90;;;;;;4154618;28;20033;-67
2021/04/13 10:46:31;;;;;;;5.55;1.50;;;10.20;99.90;;;;;;4154678;28;20099;-67
2021/04/13 10:48:53;;;;;;;4.85;1.25;;;10.20;99.90;;;;;;4154364;28;20075;-67
2021/04/13 10:51:12;;;;;;;3.25;1.08;;;10.30;99.90;;;;;;4152411;28;20033;-67
2021/04/13 10:53:44;;;;;;;6.20;1.63;;;10.40;99.90;;;;;;4157719;28;20103;-67
2021/04/13 10:56:16;;;;;;;3.17;1.25;;;10.50;99.90;;;;;;4157526;28;20118;-67
2021/04/13 10:58:45;;;;;;;3.78;0.90;;;10.60;99.90;;;;;;4160540;28;20037;-67
2021/04/13 11:01:06;;;;;;;3.58;1.08;;;10.70;99.90;;;;;;4158770;28;20033;-67
2021/04/13 11:03:42;;;;;;;9.00;1.90;;;10.70;99.90;;;;;;4151258;28;20037;-67
2021/04/13 11:06:13;;;;;;;6.63;1.85;;;10.60;99.90;;;;;;4127739;28;20092;-67
2021/04/13 11:08:43;;;;;;;8.48;2.05;;;10.40;99.90;;;;;;4174648;28;20092;-67
2021/04/13 11:11:28;;;;;;;6.53;1.90;;;10.30;99.90;;;;;;4145355;28;20038;-67
2021/04/13 11:13:34;;;;;;;6.25;1.38;;;10.20;99.90;;;;;;4153533;28;20107;-67
2021/04/13 11:15:51;;;;;;;3.40;1.00;;;10.20;99.90;;;;;;4161197;28;20039;-67
2021/04/13 11:18:48;;;;;;;7.20;1.50;;;10.30;99.90;;;;;;4158492;28;20040;-67
2021/04/13 11:21:13;;;;;;;2.78;1.20;;;10.40;99.90;;;;;;4158410;28;20535;-67
2021/04/13 11:23:41;;;;;;;3.78;0.90;;;10.50;99.90;;;;;;4160590;28;20124;-67
2021/04/13 11:26:06;;;;;;;2.47;0.68;;;10.60;99.90;;;;;;4175425;28;20053;-67
2021/04/13 11:28:31;;;;;;;4.93;1.20;;;10.70;99.90;;;;;;4162276;28;20133;-67
2021/04/13 11:30:49;;;;;;;7.88;1.50;;;10.70;99.90;;;;;;4162643;28;20049;-67
2021/04/13 11:33:27;;;;;;;3.70;1.20;;;10.60;99.90;;;;;;4160086;28;20095;-67
2021/04/13 11:35:49;;;;;;;6.20;1.23;;;10.50;99.90;;;;;;4160585;28;20339;-67
2021/04/13 11:38:08;;;;;;;3.40;1.13;;;10.40;99.90;;;;;;4161706;28;20965;-67
2021/04/13 11:40:14;;;;;;;3.75;1.02;;;10.20;99.90;;;;;;4178947;28;20056;-67